Terminal Aerodrome Forecast
Issued by NWS

Home | Current Version | Previous Version | Text Only | Print | Product List | Glossary On
Versions: 1 2 3 4 5 6 7 8 9 10 11 12 13 14 15 16 17 18 19 20 21 22 23 24 25 26 27 28 29 30 31 32 33 34 35 36 37 38 39
868
FTUS43 KDVN 010520
TAFBRL
TAF
KBRL 010520Z 0106/0206 04008KT 5SM BR OVC003
     FM010900 04008KT 2SM -DZ BR OVC001
      TEMPO 0109/0113 05008KT 1SM BR
     FM011500 04008KT 3SM -SHRA BR OVC004
     FM012100 03007KT 4SM BR VCSH OVC012=

USA.gov is the U.S. government's official web portal to all federal, state and local government web resources and services.